sensor_id;sensor_type;location;lat;lon;timestamp;pressure;altitude;pressure_sealevel;temperature;humidity
25232;BME280;13176;51.140;6.290;2023-03-31T00:01:38;99644.63;;;13.76;77.61
25232;BME280;13176;51.140;6.290;2023-03-31T00:04:11;99809.50;;;14.63;78.32
25232;BME280;13176;51.140;6.290;2023-03-31T00:06:40;99766.06;;;14.56;78.30
25232;BME280;13176;51.140;6.290;2023-03-31T00:09:14;99800.69;;;14.46;80.30
25232;BME280;13176;51.140;6.290;2023-03-31T00:11:44;99809.78;;;14.57;80.45
25232;BME280;13176;51.140;6.290;2023-03-31T00:14:11;99784.94;;;14.46;80.65
25232;BME280;13176;51.140;6.290;2023-03-31T00:16:38;99722.53;;;14.12;81.08
25232;BME280;13176;51.140;6.290;2023-03-31T00:19:04;99769.03;;;14.49;80.94
25232;BME280;13176;51.140;6.290;2023-03-31T00:21:31;99755.53;;;14.38;80.85
25232;BME280;13176;51.140;6.290;2023-03-31T00:24:04;99784.69;;;14.70;80.92
25232;BME280;13176;51.140;6.290;2023-03-31T00:26:32;99780.41;;;14.68;80.89
25232;BME280;13176;51.140;6.290;2023-03-31T00:28:59;99764.53;;;14.71;81.01
25232;BME280;13176;51.140;6.290;2023-03-31T00:31:27;99734.78;;;14.52;80.50
25232;BME280;13176;51.140;6.290;2023-03-31T00:33:54;99639.72;;;14.07;79.90
25232;BME280;13176;51.140;6.290;2023-03-31T00:36:21;99761.25;;;14.84;79.73
25232;BME280;13176;51.140;6.290;2023-03-31T00:38:53;99748.78;;;14.89;79.29
25232;BME280;13176;51.140;6.290;2023-03-31T00:41:21;99689.00;;;14.57;79.25
25232;BME280;13176;51.140;6.290;2023-03-31T00:46:42;99718.13;;;14.89;78.59
25232;BME280;13176;51.140;6.290;2023-03-31T00:49:17;99726.78;;;14.91;78.69
25232;BME280;13176;51.140;6.290;2023-03-31T00:51:47;99626.56;;;14.27;79.23
25232;BME280;13176;51.140;6.290;2023-03-31T00:54:14;99617.50;;;14.34;79.03
25232;BME280;13176;51.140;6.290;2023-03-31T00:56:43;99606.56;;;14.43;78.65
25232;BME280;13176;51.140;6.290;2023-03-31T00:59:13;99697.66;;;14.96;79.00
25232;BME280;13176;51.140;6.290;2023-03-31T01:01:41;99694.09;;;14.97;79.64
25232;BME280;13176;51.140;6.290;2023-03-31T01:04:11;99665.72;;;14.86;79.14
25232;BME280;13176;51.140;6.290;2023-03-31T01:06:44;99643.16;;;14.82;79.22
25232;BME280;13176;51.140;6.290;2023-03-31T01:09:15;99646.97;;;14.94;78.64
25232;BME280;13176;51.140;6.290;2023-03-31T01:11:43;99636.59;;;14.91;78.53
25232;BME280;13176;51.140;6.290;2023-03-31T01:14:11;99665.94;;;15.17;78.05
25232;BME280;13176;51.140;6.290;2023-03-31T01:16:38;99606.81;;;14.74;78.11
25232;BME280;13176;51.140;6.290;2023-03-31T01:19:15;99529.06;;;14.36;78.02
25232;BME280;13176;51.140;6.290;2023-03-31T01:22:09;99658.53;;;15.25;77.63
25232;BME280;13176;51.140;6.290;2023-03-31T01:41:53;99631.50;;;14.88;81.25
25232;BME280;13176;51.140;6.290;2023-03-31T01:44:42;99606.28;;;14.49;83.30
25232;BME280;13176;51.140;6.290;2023-03-31T01:47:18;99631.53;;;14.70;83.47
25232;BME280;13176;51.140;6.290;2023-03-31T01:52:39;99599.50;;;14.26;86.88
25232;BME280;13176;51.140;6.290;2023-03-31T01:55:11;99493.34;;;13.40;89.26
25232;BME280;13176;51.140;6.290;2023-03-31T01:57:49;99506.03;;;13.30;90.70
25232;BME280;13176;51.140;6.290;2023-03-31T02:00:27;99581.56;;;13.79;91.18
25232;BME280;13176;51.140;6.290;2023-03-31T02:05:40;99536.50;;;13.51;93.25
25232;BME280;13176;51.140;6.290;2023-03-31T02:08:20;99578.88;;;14.19;90.98
25232;BME280;13176;51.140;6.290;2023-03-31T02:10:49;99523.88;;;13.79;92.12
25232;BME280;13176;51.140;6.290;2023-03-31T02:13:17;99448.56;;;13.07;93.04
25232;BME280;13176;51.140;6.290;2023-03-31T02:15:52;99439.38;;;13.17;93.01
25232;BME280;13176;51.140;6.290;2023-03-31T02:18:22;99467.91;;;13.43;93.43
25232;BME280;13176;51.140;6.290;2023-03-31T02:20:51;99538.63;;;14.00;93.05
25232;BME280;13176;51.140;6.290;2023-03-31T02:23:23;99519.19;;;14.04;92.91
25232;BME280;13176;51.140;6.290;2023-03-31T02:25:55;99497.34;;;13.85;93.14
25232;BME280;13176;51.140;6.290;2023-03-31T02:28:25;99489.72;;;13.99;91.60
25232;BME280;13176;51.140;6.290;2023-03-31T02:33:38;99477.66;;;14.13;92.06
25232;BME280;13176;51.140;6.290;2023-03-31T02:36:04;99476.56;;;14.19;91.44
25232;BME280;13176;51.140;6.290;2023-03-31T02:38:36;99351.22;;;13.53;90.08
25232;BME280;13176;51.140;6.290;2023-03-31T02:41:05;99420.94;;;14.11;89.38
25232;BME280;13176;51.140;6.290;2023-03-31T02:43:31;99410.44;;;14.11;89.38
25232;BME280;13176;51.140;6.290;2023-03-31T02:45:58;99418.50;;;14.25;88.52
25232;BME280;13176;51.140;6.290;2023-03-31T02:48:30;99384.09;;;14.14;87.69
25232;BME280;13176;51.140;6.290;2023-03-31T02:59:34;99405.88;;;14.67;85.36
25232;BME280;13176;51.140;6.290;2023-03-31T03:02:35;99397.38;;;14.62;84.75
25232;BME280;13176;51.140;6.290;2023-03-31T03:05:20;99387.44;;;14.68;84.68
25232;BME280;13176;51.140;6.290;2023-03-31T03:08:02;99380.47;;;14.67;84.56
25232;BME280;13176;51.140;6.290;2023-03-31T03:13:42;99299.91;;;14.35;84.31
25232;BME280;13176;51.140;6.290;2023-03-31T03:16:26;99312.03;;;14.38;84.56
25232;BME280;13176;51.140;6.290;2023-03-31T03:18:58;99306.75;;;14.21;84.65
25232;BME280;13176;51.140;6.290;2023-03-31T03:21:26;99365.88;;;14.62;84.77
25232;BME280;13176;51.140;6.290;2023-03-31T03:23:53;99329.78;;;14.50;84.07
25232;BME280;13176;51.140;6.290;2023-03-31T03:26:20;99343.50;;;14.55;84.28
25232;BME280;13176;51.140;6.290;2023-03-31T03:28:49;99351.97;;;14.60;84.06
25232;BME280;13176;51.140;6.290;2023-03-31T03:31:16;99251.84;;;14.01;84.55
25232;BME280;13176;51.140;6.290;2023-03-31T03:33:42;99332.81;;;14.58;84.55
25232;BME280;13176;51.140;6.290;2023-03-31T03:36:09;99313.97;;;14.67;83.58
25232;BME280;13176;51.140;6.290;2023-03-31T03:38:35;99308.09;;;14.62;83.72
25232;BME280;13176;51.140;6.290;2023-03-31T03:41:02;99256.34;;;14.16;83.79
25232;BME280;13176;51.140;6.290;2023-03-31T03:43:29;99313.88;;;14.53;83.44
25232;BME280;13176;51.140;6.290;2023-03-31T03:45:55;99261.09;;;14.25;83.11
25232;BME280;13176;51.140;6.290;2023-03-31T03:48:22;99334.22;;;14.65;82.84
25232;BME280;13176;51.140;6.290;2023-03-31T03:50:48;99329.47;;;14.39;83.67
25232;BME280;13176;51.140;6.290;2023-03-31T03:53:15;99212.28;;;13.88;82.95
25232;BME280;13176;51.140;6.290;2023-03-31T03:55:42;99293.34;;;14.44;82.22
25232;BME280;13176;51.140;6.290;2023-03-31T03:58:08;99282.78;;;14.28;82.53
25232;BME280;13176;51.140;6.290;2023-03-31T04:00:34;99180.59;;;13.76;82.09
25232;BME280;13176;51.140;6.290;2023-03-31T04:03:01;99269.41;;;14.50;81.30
25232;BME280;13176;51.140;6.290;2023-03-31T04:05:28;99210.31;;;14.26;81.19
25232;BME280;13176;51.140;6.290;2023-03-31T04:07:54;99232.84;;;14.30;81.87
25232;BME280;13176;51.140;6.290;2023-03-31T04:10:20;99230.06;;;14.33;81.72
25232;BME280;13176;51.140;6.290;2023-03-31T04:12:47;99212.59;;;14.49;80.80
25232;BME280;13176;51.140;6.290;2023-03-31T04:15:14;99120.88;;;13.98;80.47
25232;BME280;13176;51.140;6.290;2023-03-31T04:17:40;99185.63;;;14.30;79.71
25232;BME280;13176;51.140;6.290;2023-03-31T04:20:08;99185.63;;;14.30;79.37
25232;BME280;13176;51.140;6.290;2023-03-31T04:22:35;99105.59;;;13.89;79.38
25232;BME280;13176;51.140;6.290;2023-03-31T04:25:11;99107.16;;;13.93;78.73
25232;BME280;13176;51.140;6.290;2023-03-31T04:27:50;99178.81;;;14.26;78.58
25232;BME280;13176;51.140;6.290;2023-03-31T04:30:25;99192.91;;;14.40;78.42
25232;BME280;13176;51.140;6.290;2023-03-31T04:32:58;99185.41;;;14.50;77.73
25232;BME280;13176;51.140;6.290;2023-03-31T04:35:29;99162.13;;;14.44;77.78
25232;BME280;13176;51.140;6.290;2023-03-31T04:38:16;99144.69;;;14.43;76.58
25232;BME280;13176;51.140;6.290;2023-03-31T04:40:45;99124.78;;;14.39;77.03
25232;BME280;13176;51.140;6.290;2023-03-31T04:43:13;99148.91;;;14.61;76.72
25232;BME280;13176;51.140;6.290;2023-03-31T04:45:40;99113.50;;;14.37;76.42
25232;BME280;13176;51.140;6.290;2023-03-31T04:48:07;99138.72;;;14.39;77.13
25232;BME280;13176;51.140;6.290;2023-03-31T04:50:34;99110.00;;;14.21;77.71
25232;BME280;13176;51.140;6.290;2023-03-31T04:53:02;99057.50;;;13.90;78.21
25232;BME280;13176;51.140;6.290;2023-03-31T04:55:28;99090.31;;;14.29;77.75
25232;BME280;13176;51.140;6.290;2023-03-31T04:57:55;99084.53;;;14.23;77.48
25232;BME280;13176;51.140;6.290;2023-03-31T05:00:22;99113.41;;;14.23;77.54
25232;BME280;13176;51.140;6.290;2023-03-31T05:02:49;99051.69;;;14.00;76.51
25232;BME280;13176;51.140;6.290;2023-03-31T05:05:17;99080.44;;;14.19;76.62
25232;BME280;13176;51.140;6.290;2023-03-31T05:07:43;99066.63;;;14.15;76.04
25232;BME280;13176;51.140;6.290;2023-03-31T05:10:09;99067.31;;;14.19;76.04
25232;BME280;13176;51.140;6.290;2023-03-31T05:12:36;99100.50;;;14.51;75.51
25232;BME280;13176;51.140;6.290;2023-03-31T05:15:05;99076.41;;;14.12;76.19
25232;BME280;13176;51.140;6.290;2023-03-31T05:17:32;98984.47;;;13.67;76.85
25232;BME280;13176;51.140;6.290;2023-03-31T05:19:59;99053.50;;;14.15;76.44
25232;BME280;13176;51.140;6.290;2023-03-31T05:22:26;98989.19;;;13.45;77.61
25232;BME280;13176;51.140;6.290;2023-03-31T05:24:52;98894.09;;;13.43;76.73
25232;BME280;13176;51.140;6.290;2023-03-31T05:27:19;99034.63;;;14.24;76.01
25232;BME280;13176;51.140;6.290;2023-03-31T05:29:47;99003.78;;;13.97;76.83
25232;BME280;13176;51.140;6.290;2023-03-31T05:32:13;99019.72;;;14.25;76.99
25232;BME280;13176;51.140;6.290;2023-03-31T05:34:39;99011.97;;;14.23;76.88
25232;BME280;13176;51.140;6.290;2023-03-31T05:37:08;98990.31;;;14.20;76.14
25232;BME280;13176;51.140;6.290;2023-03-31T05:39:34;98937.31;;;13.82;76.20
25232;BME280;13176;51.140;6.290;2023-03-31T05:42:01;99020.25;;;14.16;78.27
25232;BME280;13176;51.140;6.290;2023-03-31T05:44:28;98987.03;;;13.84;79.14
25232;BME280;13176;51.140;6.290;2023-03-31T05:46:54;98964.88;;;13.59;80.47
25232;BME280;13176;51.140;6.290;2023-03-31T05:49:21;99008.84;;;13.69;81.65
25232;BME280;13176;51.140;6.290;2023-03-31T05:51:47;99003.13;;;13.78;81.01
25232;BME280;13176;51.140;6.290;2023-03-31T05:54:14;98951.66;;;13.45;80.96
25232;BME280;13176;51.140;6.290;2023-03-31T05:56:40;98895.06;;;13.10;80.86
25232;BME280;13176;51.140;6.290;2023-03-31T05:59:07;98985.56;;;13.48;81.46
25232;BME280;13176;51.140;6.290;2023-03-31T06:01:39;98982.66;;;13.84;79.95
25232;BME280;13176;51.140;6.290;2023-03-31T06:04:16;98902.78;;;13.28;79.64
25232;BME280;13176;51.140;6.290;2023-03-31T06:06:42;98930.84;;;13.42;79.42
25232;BME280;13176;51.140;6.290;2023-03-31T06:09:09;99014.56;;;14.08;79.19
25232;BME280;13176;51.140;6.290;2023-03-31T06:11:37;98879.69;;;13.19;79.17
25232;BME280;13176;51.140;6.290;2023-03-31T06:14:04;98995.50;;;13.89;79.58
25232;BME280;13176;51.140;6.290;2023-03-31T06:16:30;98975.88;;;13.96;79.67
25232;BME280;13176;51.140;6.290;2023-03-31T06:18:57;98852.34;;;13.09;80.87
25232;BME280;13176;51.140;6.290;2023-03-31T06:21:23;98976.03;;;13.77;81.72
25232;BME280;13176;51.140;6.290;2023-03-31T06:23:49;98965.53;;;13.62;82.88
25232;BME280;13176;51.140;6.290;2023-03-31T06:26:20;98973.47;;;13.45;84.33
25232;BME280;13176;51.140;6.290;2023-03-31T06:28:48;98952.13;;;13.36;84.64
25232;BME280;13176;51.140;6.290;2023-03-31T06:31:18;98965.09;;;13.54;83.83
25232;BME280;13176;51.140;6.290;2023-03-31T06:33:45;98943.50;;;13.34;84.53
25232;BME280;13176;51.140;6.290;2023-03-31T06:36:13;98959.66;;;13.42;84.47
25232;BME280;13176;51.140;6.290;2023-03-31T06:38:41;98942.50;;;13.36;84.28
25232;BME280;13176;51.140;6.290;2023-03-31T06:41:08;98951.84;;;13.57;83.61
25232;BME280;13176;51.140;6.290;2023-03-31T06:43:36;98773.78;;;12.61;82.98
25232;BME280;13176;51.140;6.290;2023-03-31T06:46:03;98975.88;;;13.96;82.26
25232;BME280;13176;51.140;6.290;2023-03-31T06:48:31;98797.91;;;12.99;81.19
25232;BME280;13176;51.140;6.290;2023-03-31T06:50:59;98983.16;;;14.22;81.15
25232;BME280;13176;51.140;6.290;2023-03-31T06:53:26;98958.13;;;14.32;81.25
25232;BME280;13176;51.140;6.290;2023-03-31T06:55:53;98951.03;;;14.18;79.63
25232;BME280;13176;51.140;6.290;2023-03-31T06:58:19;98959.56;;;14.37;79.76
25232;BME280;13176;51.140;6.290;2023-03-31T07:00:45;98958.34;;;14.43;79.02
25232;BME280;13176;51.140;6.290;2023-03-31T07:03:12;98944.72;;;14.52;78.83
25232;BME280;13176;51.140;6.290;2023-03-31T07:05:39;98843.09;;;13.95;78.74
25232;BME280;13176;51.140;6.290;2023-03-31T07:08:06;98841.03;;;14.00;78.09
25232;BME280;13176;51.140;6.290;2023-03-31T07:10:32;98883.00;;;14.45;77.64
25232;BME280;13176;51.140;6.290;2023-03-31T07:12:59;98895.16;;;14.32;77.18
25232;BME280;13176;51.140;6.290;2023-03-31T07:15:25;98938.25;;;15.00;75.68
25232;BME280;13176;51.140;6.290;2023-03-31T07:17:55;98950.53;;;15.29;75.03
25232;BME280;13176;51.140;6.290;2023-03-31T07:20:27;98852.69;;;14.69;74.59
25232;BME280;13176;51.140;6.290;2023-03-31T07:22:55;98859.50;;;14.57;75.09
25232;BME280;13176;51.140;6.290;2023-03-31T07:25:22;98920.72;;;15.15;73.96
25232;BME280;13176;51.140;6.290;2023-03-31T07:27:48;98916.13;;;15.04;74.23
25232;BME280;13176;51.140;6.290;2023-03-31T07:30:17;98943.06;;;15.08;74.09
25232;BME280;13176;51.140;6.290;2023-03-31T07:32:48;98900.41;;;14.75;74.25
25232;BME280;13176;51.140;6.290;2023-03-31T07:35:16;98906.28;;;15.08;73.11
25232;BME280;13176;51.140;6.290;2023-03-31T07:37:45;98822.31;;;14.51;73.35
25232;BME280;13176;51.140;6.290;2023-03-31T07:40:30;98907.22;;;15.07;73.05
25232;BME280;13176;51.140;6.290;2023-03-31T07:42:56;98944.53;;;14.98;74.29
25232;BME280;13176;51.140;6.290;2023-03-31T07:45:24;98851.75;;;14.56;73.27
25232;BME280;13176;51.140;6.290;2023-03-31T07:47:52;98933.91;;;15.29;73.31
25232;BME280;13176;51.140;6.290;2023-03-31T07:50:18;98802.22;;;14.64;72.73
25232;BME280;13176;51.140;6.290;2023-03-31T07:52:45;98833.19;;;14.73;72.73
25232;BME280;13176;51.140;6.290;2023-03-31T07:55:13;98793.78;;;14.45;72.29
25232;BME280;13176;51.140;6.290;2023-03-31T07:57:39;98872.03;;;15.09;72.00
25232;BME280;13176;51.140;6.290;2023-03-31T08:00:08;98934.25;;;15.65;71.86
25232;BME280;13176;51.140;6.290;2023-03-31T08:02:38;98937.47;;;15.28;72.38
25232;BME280;13176;51.140;6.290;2023-03-31T08:05:05;98845.75;;;15.37;71.27
25232;BME280;13176;51.140;6.290;2023-03-31T08:07:34;98868.19;;;15.43;71.55
25232;BME280;13176;51.140;6.290;2023-03-31T08:10:03;98882.84;;;15.47;71.03
25232;BME280;13176;51.140;6.290;2023-03-31T08:12:29;98832.81;;;15.06;70.50
25232;BME280;13176;51.140;6.290;2023-03-31T08:14:56;98888.66;;;15.92;69.49
25232;BME280;13176;51.140;6.290;2023-03-31T08:17:22;98928.00;;;16.34;68.90
25232;BME280;13176;51.140;6.290;2023-03-31T08:19:49;98842.53;;;15.60;69.20
25232;BME280;13176;51.140;6.290;2023-03-31T08:22:16;98814.09;;;15.79;69.33
25232;BME280;13176;51.140;6.290;2023-03-31T08:24:43;98856.91;;;15.81;69.26
25232;BME280;13176;51.140;6.290;2023-03-31T08:27:09;98815.31;;;15.61;70.06
25232;BME280;13176;51.140;6.290;2023-03-31T08:29:37;98901.34;;;16.12;68.63
25232;BME280;13176;51.140;6.290;2023-03-31T08:32:04;98910.88;;;16.27;68.91
25232;BME280;13176;51.140;6.290;2023-03-31T08:34:32;98800.16;;;15.65;68.05
25232;BME280;13176;51.140;6.290;2023-03-31T08:36:59;98795.84;;;15.23;67.82
25232;BME280;13176;51.140;6.290;2023-03-31T08:39:25;98781.91;;;15.49;67.18
25232;BME280;13176;51.140;6.290;2023-03-31T08:42:10;98889.03;;;16.39;67.35
25232;BME280;13176;51.140;6.290;2023-03-31T08:44:54;98896.56;;;16.31;67.59
25232;BME280;13176;51.140;6.290;2023-03-31T08:47:24;98870.47;;;15.75;67.13
25232;BME280;13176;51.140;6.290;2023-03-31T08:49:59;98839.84;;;16.00;66.86
25232;BME280;13176;51.140;6.290;2023-03-31T08:52:37;98809.00;;;15.90;66.31
25232;BME280;13176;51.140;6.290;2023-03-31T08:55:09;98877.81;;;16.23;65.81
25232;BME280;13176;51.140;6.290;2023-03-31T09:00:21;98881.94;;;16.53;66.05
25232;BME280;13176;51.140;6.290;2023-03-31T09:02:56;98879.38;;;16.52;65.94
25232;BME280;13176;51.140;6.290;2023-03-31T09:05:44;98796.28;;;16.09;65.91
25232;BME280;13176;51.140;6.290;2023-03-31T09:08:40;98875.81;;;16.78;65.17
25232;BME280;13176;51.140;6.290;2023-03-31T09:13:51;98806.91;;;16.71;63.53
25232;BME280;13176;51.140;6.290;2023-03-31T09:16:47;98766.69;;;16.57;61.82
25232;BME280;13176;51.140;6.290;2023-03-31T09:19:36;98825.84;;;17.38;62.03
25232;BME280;13176;51.140;6.290;2023-03-31T09:22:14;98837.88;;;17.17;61.97
25232;BME280;13176;51.140;6.290;2023-03-31T09:25:30;98784.56;;;17.02;60.72
25232;BME280;13176;51.140;6.290;2023-03-31T09:27:58;98806.75;;;16.23;62.91
25232;BME280;13176;51.140;6.290;2023-03-31T09:30:35;98868.44;;;16.45;68.52
25232;BME280;13176;51.140;6.290;2023-03-31T09:35:47;98843.13;;;15.23;72.63
25232;BME280;13176;51.140;6.290;2023-03-31T09:38:18;98883.47;;;15.36;72.76
25232;BME280;13176;51.140;6.290;2023-03-31T09:41:04;98676.06;;;14.25;71.84
25232;BME280;13176;51.140;6.290;2023-03-31T09:43:32;98856.88;;;15.95;69.58
25232;BME280;13176;51.140;6.290;2023-03-31T09:46:16;98865.59;;;15.69;68.96
25232;BME280;13176;51.140;6.290;2023-03-31T09:49:26;98874.63;;;16.32;67.52
25232;BME280;13176;51.140;6.290;2023-03-31T09:52:06;98862.84;;;16.62;67.10
25232;BME280;13176;51.140;6.290;2023-03-31T09:54:46;98735.69;;;15.98;64.00
25232;BME280;13176;51.140;6.290;2023-03-31T10:02:47;98855.59;;;16.66;62.34
25232;BME280;13176;51.140;6.290;2023-03-31T10:05:35;98736.09;;;16.04;62.16
25232;BME280;13176;51.140;6.290;2023-03-31T10:08:28;98829.69;;;17.10;60.66
25232;BME280;13176;51.140;6.290;2023-03-31T10:13:48;98824.94;;;16.90;61.36
25232;BME280;13176;51.140;6.290;2023-03-31T10:16:34;98866.34;;;16.63;65.02
25232;BME280;13176;51.140;6.290;2023-03-31T10:19:26;98868.22;;;15.69;69.40
25232;BME280;13176;51.140;6.290;2023-03-31T10:21:56;98845.69;;;15.39;72.03
25232;BME280;13176;51.140;6.290;2023-03-31T10:24:24;98840.81;;;15.33;74.16
25232;BME280;13176;51.140;6.290;2023-03-31T10:26:54;98843.50;;;15.45;74.24
25232;BME280;13176;51.140;6.290;2023-03-31T10:29:30;98870.72;;;15.30;75.28
25232;BME280;13176;51.140;6.290;2023-03-31T10:32:19;98844.81;;;15.10;74.89
25232;BME280;13176;51.140;6.290;2023-03-31T10:34:48;98764.56;;;14.51;72.96
25232;BME280;13176;51.140;6.290;2023-03-31T10:37:18;98826.72;;;15.06;70.45
25232;BME280;13176;51.140;6.290;2023-03-31T10:40:03;98828.09;;;15.53;69.44
25232;BME280;13176;51.140;6.290;2023-03-31T10:42:34;98888.91;;;15.61;68.80
25232;BME280;13176;51.140;6.290;2023-03-31T10:45:28;98883.84;;;15.30;71.10
25232;BME280;13176;51.140;6.290;2023-03-31T10:48:05;98847.06;;;15.02;70.78
25232;BME280;13176;51.140;6.290;2023-03-31T10:50:42;98842.03;;;15.27;69.40
25232;BME280;13176;51.140;6.290;2023-03-31T10:53:26;98839.38;;;15.13;67.62
25232;BME280;13176;51.140;6.290;2023-03-31T10:56:00;98768.06;;;15.05;66.87
25232;BME280;13176;51.140;6.290;2023-03-31T11:04:23;98831.47;;;15.82;65.15
25232;BME280;13176;51.140;6.290;2023-03-31T11:12:43;98789.94;;;17.95;58.66
25232;BME280;13176;51.140;6.290;2023-03-31T11:15:21;98812.91;;;18.06;58.03
25232;BME280;13176;51.140;6.290;2023-03-31T11:20:44;98810.69;;;17.89;56.74
25232;BME280;13176;51.140;6.290;2023-03-31T11:23:39;98778.56;;;18.29;55.50
25232;BME280;13176;51.140;6.290;2023-03-31T11:26:24;98784.34;;;18.34;55.43
25232;BME280;13176;51.140;6.290;2023-03-31T11:32:15;98784.63;;;17.61;58.11
25232;BME280;13176;51.140;6.290;2023-03-31T11:35:03;98765.06;;;18.21;57.65
25232;BME280;13176;51.140;6.290;2023-03-31T11:40:27;98789.19;;;17.82;58.00
25232;BME280;13176;51.140;6.290;2023-03-31T11:43:01;98788.03;;;17.97;59.32
25232;BME280;13176;51.140;6.290;2023-03-31T11:45:37;98778.66;;;17.11;63.41
25232;BME280;13176;51.140;6.290;2023-03-31T11:48:13;98782.19;;;16.10;68.96
25232;BME280;13176;51.140;6.290;2023-03-31T11:50:44;98773.22;;;15.21;75.64
25232;BME280;13176;51.140;6.290;2023-03-31T11:53:18;98821.34;;;15.35;79.12
25232;BME280;13176;51.140;6.290;2023-03-31T11:55:47;98774.34;;;15.31;78.86
25232;BME280;13176;51.140;6.290;2023-03-31T11:58:59;98717.59;;;15.28;78.93
25232;BME280;13176;51.140;6.290;2023-03-31T12:01:52;98811.97;;;16.37;76.57
25232;BME280;13176;51.140;6.290;2023-03-31T12:04:36;98768.56;;;16.30;74.75
25232;BME280;13176;51.140;6.290;2023-03-31T12:07:28;98755.50;;;16.41;70.79
25232;BME280;13176;51.140;6.290;2023-03-31T12:10:10;98780.34;;;16.99;69.33
25232;BME280;13176;51.140;6.290;2023-03-31T12:12:52;98784.72;;;17.23;67.63
25232;BME280;13176;51.140;6.290;2023-03-31T12:15:38;98721.44;;;17.23;64.75
25232;BME280;13176;51.140;6.290;2023-03-31T12:18:15;98738.56;;;17.88;63.88
25232;BME280;13176;51.140;6.290;2023-03-31T12:20:54;98744.34;;;17.93;60.26
25232;BME280;13176;51.140;6.290;2023-03-31T12:23:24;98760.19;;;17.93;59.58
25232;BME280;13176;51.140;6.290;2023-03-31T12:26:05;98728.09;;;17.52;58.89
25232;BME280;13176;51.140;6.290;2023-03-31T12:28:35;98737.66;;;17.42;58.75
25232;BME280;13176;51.140;6.290;2023-03-31T12:31:04;98749.72;;;17.21;59.57
25232;BME280;13176;51.140;6.290;2023-03-31T12:33:43;98751.63;;;17.19;60.95
25232;BME280;13176;51.140;6.290;2023-03-31T12:39:34;98761.63;;;16.54;64.68
25232;BME280;13176;51.140;6.290;2023-03-31T12:45:10;98766.69;;;17.17;62.87
25232;BME280;13176;51.140;6.290;2023-03-31T12:50:27;98750.41;;;18.51;57.29
25232;BME280;13176;51.140;6.290;2023-03-31T12:55:54;98707.00;;;17.52;55.00
25232;BME280;13176;51.140;6.290;2023-03-31T13:03:37;98728.31;;;18.96;51.42
25232;BME280;13176;51.140;6.290;2023-03-31T13:06:09;98681.34;;;18.34;51.90
25232;BME280;13176;51.140;6.290;2023-03-31T13:09:06;98655.03;;;17.65;52.89
25232;BME280;13176;51.140;6.290;2023-03-31T13:11:46;98723.25;;;17.70;53.43
25232;BME280;13176;51.140;6.290;2023-03-31T13:14:28;98723.97;;;17.95;53.86
25232;BME280;13176;51.140;6.290;2023-03-31T13:17:32;98734.50;;;17.84;53.48
25232;BME280;13176;51.140;6.290;2023-03-31T13:20:29;98733.72;;;18.06;53.29
25232;BME280;13176;51.140;6.290;2023-03-31T13:23:23;98701.84;;;17.74;54.82
25232;BME280;13176;51.140;6.290;2023-03-31T13:25:52;98703.19;;;18.25;54.02
25232;BME280;13176;51.140;6.290;2023-03-31T13:28:23;98700.97;;;17.39;54.26
25232;BME280;13176;51.140;6.290;2023-03-31T13:33:24;98692.41;;;17.59;56.76
25232;BME280;13176;51.140;6.290;2023-03-31T13:35:58;98704.47;;;17.74;56.24
25232;BME280;13176;51.140;6.290;2023-03-31T13:41:33;98661.63;;;18.16;54.84
25232;BME280;13176;51.140;6.290;2023-03-31T13:47:13;98691.88;;;18.12;53.75
25232;BME280;13176;51.140;6.290;2023-03-31T13:49:52;98620.97;;;17.62;54.36
25232;BME280;13176;51.140;6.290;2023-03-31T13:52:38;98684.78;;;18.02;53.87
25232;BME280;13176;51.140;6.290;2023-03-31T14:04:28;98660.28;;;18.00;52.12
25232;BME280;13176;51.140;6.290;2023-03-31T14:06:36;98660.03;;;18.03;53.15
25232;BME280;13176;51.140;6.290;2023-03-31T14:09:10;98585.59;;;17.30;53.46
25232;BME280;13176;51.140;6.290;2023-03-31T14:11:38;98676.13;;;17.65;54.13
25232;BME280;13176;51.140;6.290;2023-03-31T14:14:15;98629.56;;;17.53;53.92
25232;BME280;13176;51.140;6.290;2023-03-31T14:16:58;98692.78;;;17.31;54.81
25232;BME280;13176;51.140;6.290;2023-03-31T14:22:26;98683.34;;;15.42;71.22
25232;BME280;13176;51.140;6.290;2023-03-31T14:25:10;98673.72;;;15.02;75.95
25232;BME280;13176;51.140;6.290;2023-03-31T14:28:00;98705.03;;;15.05;77.92
25232;BME280;13176;51.140;6.290;2023-03-31T14:30:49;98680.31;;;15.22;79.23
25232;BME280;13176;51.140;6.290;2023-03-31T14:33:53;98664.13;;;15.15;80.89
25232;BME280;13176;51.140;6.290;2023-03-31T14:39:05;98652.13;;;15.11;82.01
25232;BME280;13176;51.140;6.290;2023-03-31T14:41:32;98711.56;;;15.53;83.02
25232;BME280;13176;51.140;6.290;2023-03-31T14:44:05;98621.88;;;14.66;83.97
25232;BME280;13176;51.140;6.290;2023-03-31T14:46:36;98706.78;;;14.92;86.12
25232;BME280;13176;51.140;6.290;2023-03-31T14:49:18;98693.78;;;14.21;88.61
25232;BME280;13176;51.140;6.290;2023-03-31T14:51:46;98721.22;;;14.72;89.42
25232;BME280;13176;51.140;6.290;2023-03-31T14:54:18;98701.91;;;14.59;89.27
25232;BME280;13176;51.140;6.290;2023-03-31T14:56:49;98624.13;;;14.58;88.68
25232;BME280;13176;51.140;6.290;2023-03-31T14:59:20;98658.75;;;14.90;88.71
25232;BME280;13176;51.140;6.290;2023-03-31T15:01:48;98643.25;;;14.60;86.91
25232;BME280;13176;51.140;6.290;2023-03-31T15:04:20;98712.66;;;15.10;87.61
25232;BME280;13176;51.140;6.290;2023-03-31T15:07:00;98695.63;;;15.15;85.51
25232;BME280;13176;51.140;6.290;2023-03-31T15:09:29;98695.72;;;15.54;83.59
25232;BME280;13176;51.140;6.290;2023-03-31T15:12:01;98612.91;;;14.56;82.17
25232;BME280;13176;51.140;6.290;2023-03-31T15:14:34;98586.41;;;14.73;82.80
25232;BME280;13176;51.140;6.290;2023-03-31T15:17:03;98598.06;;;14.95;81.79
25232;BME280;13176;51.140;6.290;2023-03-31T15:19:32;98631.53;;;14.65;80.72
25232;BME280;13176;51.140;6.290;2023-03-31T15:22:14;98631.59;;;14.78;81.01
25232;BME280;13176;51.140;6.290;2023-03-31T15:24:44;98653.91;;;14.84;79.30
25232;BME280;13176;51.140;6.290;2023-03-31T15:27:36;98620.34;;;15.02;79.56